sensor_id;sensor_type;location;lat;lon;timestamp;temperature;humidity
22984;DHT22;11658;48.908;9.140;2023-08-31T04:02:38;12.20;99.90
22984;DHT22;11658;48.908;9.140;2023-08-31T04:05:04;12.00;99.90
22984;DHT22;11658;48.908;9.140;2023-08-31T04:07:32;12.20;99.90
22984;DHT22;11658;48.908;9.140;2023-08-31T04:09:58;12.20;99.90
22984;DHT22;11658;48.908;9.140;2023-08-31T04:12:24;12.00;99.90
22984;DHT22;11658;48.908;9.140;2023-08-31T04:14:49;12.10;99.90
22984;DHT22;11658;48.908;9.140;2023-08-31T04:17:15;12.00;99.90
22984;DHT22;11658;48.908;9.140;2023-08-31T04:19:40;12.10;99.90
22984;DHT22;11658;48.908;9.140;2023-08-31T04:22:06;12.10;99.90
22984;DHT22;11658;48.908;9.140;2023-08-31T04:24:31;11.90;99.90
22984;DHT22;11658;48.908;9.140;2023-08-31T04:26:57;12.30;99.90
22984;DHT22;11658;48.908;9.140;2023-08-31T04:29:22;12.10;99.90
22984;DHT22;11658;48.908;9.140;2023-08-31T04:31:48;12.10;99.90
22984;DHT22;11658;48.908;9.140;2023-08-31T04:34:14;12.20;99.90
22984;DHT22;11658;48.908;9.140;2023-08-31T04:36:39;12.00;99.90
22984;DHT22;11658;48.908;9.140;2023-08-31T04:39:05;12.10;99.90
22984;DHT22;11658;48.908;9.140;2023-08-31T04:41:31;12.00;99.90
22984;DHT22;11658;48.908;9.140;2023-08-31T04:43:56;12.30;99.90
22984;DHT22;11658;48.908;9.140;2023-08-31T04:46:22;11.80;99.90
22984;DHT22;11658;48.908;9.140;2023-08-31T04:48:47;12.20;99.90
22984;DHT22;11658;48.908;9.140;2023-08-31T04:51:34;11.80;99.90
22984;DHT22;11658;48.908;9.140;2023-08-31T04:54:00;11.90;99.90
22984;DHT22;11658;48.908;9.140;2023-08-31T04:56:30;11.80;99.90
22984;DHT22;11658;48.908;9.140;2023-08-31T04:58:57;11.90;99.90
22984;DHT22;11658;48.908;9.140;2023-08-31T05:01:23;12.30;99.90
22984;DHT22;11658;48.908;9.140;2023-08-31T05:03:48;11.90;99.90
22984;DHT22;11658;48.908;9.140;2023-08-31T05:06:14;11.80;99.90
22984;DHT22;11658;48.908;9.140;2023-08-31T05:08:39;11.80;99.90
22984;DHT22;11658;48.908;9.140;2023-08-31T05:11:05;12.00;99.90
22984;DHT22;11658;48.908;9.140;2023-08-31T05:13:31;12.00;99.90
22984;DHT22;11658;48.908;9.140;2023-08-31T05:15:56;11.90;99.90
22984;DHT22;11658;48.908;9.140;2023-08-31T05:18:22;12.00;99.90
22984;DHT22;11658;48.908;9.140;2023-08-31T05:20:47;11.90;99.90
22984;DHT22;11658;48.908;9.140;2023-08-31T05:23:14;11.80;99.90
22984;DHT22;11658;48.908;9.140;2023-08-31T05:25:46;11.90;99.90
22984;DHT22;11658;48.908;9.140;2023-08-31T05:28:11;12.20;99.90
22984;DHT22;11658;48.908;9.140;2023-08-31T05:30:45;12.00;99.90
22984;DHT22;11658;48.908;9.140;2023-08-31T05:33:11;11.90;99.90
22984;DHT22;11658;48.908;9.140;2023-08-31T05:35:37;11.90;99.90
22984;DHT22;11658;48.908;9.140;2023-08-31T05:38:02;12.00;99.90
22984;DHT22;11658;48.908;9.140;2023-08-31T05:40:28;12.10;99.90
22984;DHT22;11658;48.908;9.140;2023-08-31T05:42:54;12.20;99.90
22984;DHT22;11658;48.908;9.140;2023-08-31T05:45:20;12.20;99.90
22984;DHT22;11658;48.908;9.140;2023-08-31T05:47:46;12.30;99.90
22984;DHT22;11658;48.908;9.140;2023-08-31T05:50:11;12.30;99.90
22984;DHT22;11658;48.908;9.140;2023-08-31T05:52:37;12.30;99.90
22984;DHT22;11658;48.908;9.140;2023-08-31T05:55:03;12.40;99.90
22984;DHT22;11658;48.908;9.140;2023-08-31T05:57:28;12.50;99.90
22984;DHT22;11658;48.908;9.140;2023-08-31T05:59:54;12.70;99.90
22984;DHT22;11658;48.908;9.140;2023-08-31T06:02:20;12.60;99.90
22984;DHT22;11658;48.908;9.140;2023-08-31T06:04:45;12.70;99.90
22984;DHT22;11658;48.908;9.140;2023-08-31T06:07:11;12.70;99.90
22984;DHT22;11658;48.908;9.140;2023-08-31T06:09:36;12.80;99.90
22984;DHT22;11658;48.908;9.140;2023-08-31T06:12:04;13.00;99.90
22984;DHT22;11658;48.908;9.140;2023-08-31T06:14:29;13.00;99.90
22984;DHT22;11658;48.908;9.140;2023-08-31T06:16:55;13.10;99.90
22984;DHT22;11658;48.908;9.140;2023-08-31T06:19:20;13.00;99.90
22984;DHT22;11658;48.908;9.140;2023-08-31T06:21:46;13.10;99.90
22984;DHT22;11658;48.908;9.140;2023-08-31T06:24:12;13.20;99.90
22984;DHT22;11658;48.908;9.140;2023-08-31T06:26:39;13.20;99.90
22984;DHT22;11658;48.908;9.140;2023-08-31T06:29:04;13.30;99.90
22984;DHT22;11658;48.908;9.140;2023-08-31T06:31:30;13.50;99.90
22984;DHT22;11658;48.908;9.140;2023-08-31T06:33:56;13.50;99.90
22984;DHT22;11658;48.908;9.140;2023-08-31T06:36:21;13.70;99.90
22984;DHT22;11658;48.908;9.140;2023-08-31T06:38:47;13.90;99.90
22984;DHT22;11658;48.908;9.140;2023-08-31T06:41:12;14.20;99.90
22984;DHT22;11658;48.908;9.140;2023-08-31T06:43:38;14.50;99.90
22984;DHT22;11658;48.908;9.140;2023-08-31T06:46:03;14.80;99.90
22984;DHT22;11658;48.908;9.140;2023-08-31T06:48:29;15.20;99.90
22984;DHT22;11658;48.908;9.140;2023-08-31T06:50:54;15.20;99.90
22984;DHT22;11658;48.908;9.140;2023-08-31T06:53:21;15.40;99.90
22984;DHT22;11658;48.908;9.140;2023-08-31T06:55:47;15.90;99.90
22984;DHT22;11658;48.908;9.140;2023-08-31T06:58:12;15.50;99.90
22984;DHT22;11658;48.908;9.140;2023-08-31T07:00:38;15.40;99.90
22984;DHT22;11658;48.908;9.140;2023-08-31T07:03:04;15.40;99.90
22984;DHT22;11658;48.908;9.140;2023-08-31T07:05:34;15.50;99.90
22984;DHT22;11658;48.908;9.140;2023-08-31T07:08:01;15.60;99.90
22984;DHT22;11658;48.908;9.140;2023-08-31T07:10:27;15.70;99.90
22984;DHT22;11658;48.908;9.140;2023-08-31T07:12:53;15.70;99.90
22984;DHT22;11658;48.908;9.140;2023-08-31T07:15:18;15.50;99.90
22984;DHT22;11658;48.908;9.140;2023-08-31T07:17:44;15.60;99.90
22984;DHT22;11658;48.908;9.140;2023-08-31T07:20:11;15.70;99.90
22984;DHT22;11658;48.908;9.140;2023-08-31T07:22:37;15.70;99.90
22984;DHT22;11658;48.908;9.140;2023-08-31T07:25:04;15.90;99.90
22984;DHT22;11658;48.908;9.140;2023-08-31T07:27:29;16.00;99.90
22984;DHT22;11658;48.908;9.140;2023-08-31T07:29:55;16.00;99.90
22984;DHT22;11658;48.908;9.140;2023-08-31T07:32:21;16.30;99.90
22984;DHT22;11658;48.908;9.140;2023-08-31T07:34:47;16.40;99.90
22984;DHT22;11658;48.908;9.140;2023-08-31T07:37:13;16.50;99.90
22984;DHT22;11658;48.908;9.140;2023-08-31T07:39:38;16.50;99.90
22984;DHT22;11658;48.908;9.140;2023-08-31T07:42:05;16.90;99.90
22984;DHT22;11658;48.908;9.140;2023-08-31T07:44:31;16.70;99.90
22984;DHT22;11658;48.908;9.140;2023-08-31T07:46:56;17.20;99.90
22984;DHT22;11658;48.908;9.140;2023-08-31T07:49:22;17.40;99.90
22984;DHT22;11658;48.908;9.140;2023-08-31T07:51:48;17.40;99.90
22984;DHT22;11658;48.908;9.140;2023-08-31T07:54:21;17.50;99.90
22984;DHT22;11658;48.908;9.140;2023-08-31T07:56:46;17.40;99.90
22984;DHT22;11658;48.908;9.140;2023-08-31T07:59:12;17.50;99.90
22984;DHT22;11658;48.908;9.140;2023-08-31T08:01:37;17.30;99.90
22984;DHT22;11658;48.908;9.140;2023-08-31T08:04:03;17.30;99.90
22984;DHT22;11658;48.908;9.140;2023-08-31T08:06:29;17.20;99.90
22984;DHT22;11658;48.908;9.140;2023-08-31T08:08:54;17.20;99.90
22984;DHT22;11658;48.908;9.140;2023-08-31T08:11:22;17.10;99.90
22984;DHT22;11658;48.908;9.140;2023-08-31T08:13:47;17.00;99.90
22984;DHT22;11658;48.908;9.140;2023-08-31T08:16:13;17.10;99.90
22984;DHT22;11658;48.908;9.140;2023-08-31T08:18:40;17.30;99.90
22984;DHT22;11658;48.908;9.140;2023-08-31T08:21:05;17.30;99.90
22984;DHT22;11658;48.908;9.140;2023-08-31T08:23:31;17.30;99.90
22984;DHT22;11658;48.908;9.140;2023-08-31T08:25:57;17.30;99.90
22984;DHT22;11658;48.908;9.140;2023-08-31T08:28:25;17.40;99.90
22984;DHT22;11658;48.908;9.140;2023-08-31T08:30:50;17.30;99.90
22984;DHT22;11658;48.908;9.140;2023-08-31T08:33:16;17.40;99.90
22984;DHT22;11658;48.908;9.140;2023-08-31T08:35:42;17.40;99.90
22984;DHT22;11658;48.908;9.140;2023-08-31T08:38:07;17.60;99.90
22984;DHT22;11658;48.908;9.140;2023-08-31T08:40:34;17.80;99.90
22984;DHT22;11658;48.908;9.140;2023-08-31T08:43:06;17.70;99.90
22984;DHT22;11658;48.908;9.140;2023-08-31T08:45:38;17.60;99.90
22984;DHT22;11658;48.908;9.140;2023-08-31T08:48:07;17.70;99.90
22984;DHT22;11658;48.908;9.140;2023-08-31T08:50:33;17.60;99.90
22984;DHT22;11658;48.908;9.140;2023-08-31T08:53:03;17.70;99.90
22984;DHT22;11658;48.908;9.140;2023-08-31T08:55:29;17.80;99.90
22984;DHT22;11658;48.908;9.140;2023-08-31T08:57:55;17.70;99.90
22984;DHT22;11658;48.908;9.140;2023-08-31T09:00:21;17.80;99.90
22984;DHT22;11658;48.908;9.140;2023-08-31T09:02:47;17.70;99.90
22984;DHT22;11658;48.908;9.140;2023-08-31T09:05:12;17.50;99.90
22984;DHT22;11658;48.908;9.140;2023-08-31T09:07:38;17.30;99.90
22984;DHT22;11658;48.908;9.140;2023-08-31T09:10:04;17.30;99.90
22984;DHT22;11658;48.908;9.140;2023-08-31T09:12:30;17.10;99.90
22984;DHT22;11658;48.908;9.140;2023-08-31T09:15:01;17.20;99.90
22984;DHT22;11658;48.908;9.140;2023-08-31T09:17:38;17.30;99.90
22984;DHT22;11658;48.908;9.140;2023-08-31T09:20:04;17.40;99.90
22984;DHT22;11658;48.908;9.140;2023-08-31T09:22:30;17.30;99.90
22984;DHT22;11658;48.908;9.140;2023-08-31T09:24:55;17.40;99.90
22984;DHT22;11658;48.908;9.140;2023-08-31T09:27:21;17.40;99.90
22984;DHT22;11658;48.908;9.140;2023-08-31T09:29:48;17.40;99.90
22984;DHT22;11658;48.908;9.140;2023-08-31T09:32:17;17.10;99.90
22984;DHT22;11658;48.908;9.140;2023-08-31T09:34:43;17.10;99.90
22984;DHT22;11658;48.908;9.140;2023-08-31T09:37:09;17.10;99.90
22984;DHT22;11658;48.908;9.140;2023-08-31T09:39:41;17.30;99.90
22984;DHT22;11658;48.908;9.140;2023-08-31T09:42:07;17.50;99.90
22984;DHT22;11658;48.908;9.140;2023-08-31T09:44:33;17.70;99.90
22984;DHT22;11658;48.908;9.140;2023-08-31T09:47:01;17.70;99.90
22984;DHT22;11658;48.908;9.140;2023-08-31T09:49:28;17.70;99.90
22984;DHT22;11658;48.908;9.140;2023-08-31T09:51:54;17.60;99.90
22984;DHT22;11658;48.908;9.140;2023-08-31T09:54:21;17.60;99.90
22984;DHT22;11658;48.908;9.140;2023-08-31T09:56:48;17.80;99.90
22984;DHT22;11658;48.908;9.140;2023-08-31T09:59:15;17.90;99.90
22984;DHT22;11658;48.908;9.140;2023-08-31T10:01:44;18.00;99.90
22984;DHT22;11658;48.908;9.140;2023-08-31T10:04:11;17.90;99.90
22984;DHT22;11658;48.908;9.140;2023-08-31T10:06:41;18.10;99.90
22984;DHT22;11658;48.908;9.140;2023-08-31T10:09:07;18.00;99.90
22984;DHT22;11658;48.908;9.140;2023-08-31T10:11:38;18.30;99.90
22984;DHT22;11658;48.908;9.140;2023-08-31T10:14:04;18.20;99.90
22984;DHT22;11658;48.908;9.140;2023-08-31T10:16:31;18.30;99.90
22984;DHT22;11658;48.908;9.140;2023-08-31T10:18:57;18.20;99.90
22984;DHT22;11658;48.908;9.140;2023-08-31T10:21:23;18.40;99.90
22984;DHT22;11658;48.908;9.140;2023-08-31T10:23:49;18.80;99.90
22984;DHT22;11658;48.908;9.140;2023-08-31T10:28:51;18.90;99.90
22984;DHT22;11658;48.908;9.140;2023-08-31T10:31:17;19.00;99.90
22984;DHT22;11658;48.908;9.140;2023-08-31T10:33:54;18.90;99.90
22984;DHT22;11658;48.908;9.140;2023-08-31T10:36:20;18.50;99.90
22984;DHT22;11658;48.908;9.140;2023-08-31T10:38:50;18.60;99.90
22984;DHT22;11658;48.908;9.140;2023-08-31T10:41:26;18.80;99.90
22984;DHT22;11658;48.908;9.140;2023-08-31T10:43:57;18.70;99.90
22984;DHT22;11658;48.908;9.140;2023-08-31T10:49:01;19.00;99.90
22984;DHT22;11658;48.908;9.140;2023-08-31T10:51:32;19.00;99.90
22984;DHT22;11658;48.908;9.140;2023-08-31T10:57:01;18.80;99.90
22984;DHT22;11658;48.908;9.140;2023-08-31T10:59:50;18.80;99.90
22984;DHT22;11658;48.908;9.140;2023-08-31T11:07:33;18.40;99.90
22984;DHT22;11658;48.908;9.140;2023-08-31T11:10:16;18.50;99.90
22984;DHT22;11658;48.908;9.140;2023-08-31T11:12:44;18.60;99.90
22984;DHT22;11658;48.908;9.140;2023-08-31T11:15:20;18.90;99.90
22984;DHT22;11658;48.908;9.140;2023-08-31T11:17:47;19.00;99.90
22984;DHT22;11658;48.908;9.140;2023-08-31T11:20:15;19.00;99.90
22984;DHT22;11658;48.908;9.140;2023-08-31T11:22:43;18.90;99.90
22984;DHT22;11658;48.908;9.140;2023-08-31T11:25:11;18.90;99.90
22984;DHT22;11658;48.908;9.140;2023-08-31T11:27:37;18.60;99.90
22984;DHT22;11658;48.908;9.140;2023-08-31T11:30:11;18.60;99.90
22984;DHT22;11658;48.908;9.140;2023-08-31T11:32:36;18.90;99.90
22984;DHT22;11658;48.908;9.140;2023-08-31T11:35:02;19.20;99.90
22984;DHT22;11658;48.908;9.140;2023-08-31T11:37:29;19.40;99.90
22984;DHT22;11658;48.908;9.140;2023-08-31T11:39:54;19.40;99.90
22984;DHT22;11658;48.908;9.140;2023-08-31T11:42:21;19.50;99.90
22984;DHT22;11658;48.908;9.140;2023-08-31T11:44:48;19.60;99.90
22984;DHT22;11658;48.908;9.140;2023-08-31T11:47:15;19.60;99.90
22984;DHT22;11658;48.908;9.140;2023-08-31T11:49:45;19.80;99.90
22984;DHT22;11658;48.908;9.140;2023-08-31T11:52:12;19.80;99.90
22984;DHT22;11658;48.908;9.140;2023-08-31T11:54:41;19.80;99.90
22984;DHT22;11658;48.908;9.140;2023-08-31T11:57:08;19.90;99.90
22984;DHT22;11658;48.908;9.140;2023-08-31T11:59:35;19.80;99.90
22984;DHT22;11658;48.908;9.140;2023-08-31T12:02:01;19.70;99.90
22984;DHT22;11658;48.908;9.140;2023-08-31T12:04:28;19.80;99.90
22984;DHT22;11658;48.908;9.140;2023-08-31T12:07:01;19.90;99.90
22984;DHT22;11658;48.908;9.140;2023-08-31T12:09:30;19.90;99.90
22984;DHT22;11658;48.908;9.140;2023-08-31T12:11:56;20.10;99.90
22984;DHT22;11658;48.908;9.140;2023-08-31T12:14:23;19.90;99.90
22984;DHT22;11658;48.908;9.140;2023-08-31T12:16:50;19.90;99.90
22984;DHT22;11658;48.908;9.140;2023-08-31T12:19:16;19.90;99.90
22984;DHT22;11658;48.908;9.140;2023-08-31T12:21:44;19.70;99.90
22984;DHT22;11658;48.908;9.140;2023-08-31T12:24:10;19.90;99.90
22984;DHT22;11658;48.908;9.140;2023-08-31T12:26:36;20.10;99.90
22984;DHT22;11658;48.908;9.140;2023-08-31T12:29:03;20.50;99.90
22984;DHT22;11658;48.908;9.140;2023-08-31T12:31:31;20.60;99.90
22984;DHT22;11658;48.908;9.140;2023-08-31T12:33:58;20.60;99.90
22984;DHT22;11658;48.908;9.140;2023-08-31T12:36:23;20.70;99.90
22984;DHT22;11658;48.908;9.140;2023-08-31T12:38:49;20.50;99.90
22984;DHT22;11658;48.908;9.140;2023-08-31T12:41:15;20.40;99.90
22984;DHT22;11658;48.908;9.140;2023-08-31T12:43:40;20.60;99.90
22984;DHT22;11658;48.908;9.140;2023-08-31T12:46:06;20.80;99.90
22984;DHT22;11658;48.908;9.140;2023-08-31T12:48:32;20.70;99.90
22984;DHT22;11658;48.908;9.140;2023-08-31T12:50:58;20.60;99.90
22984;DHT22;11658;48.908;9.140;2023-08-31T12:53:24;20.20;99.90
22984;DHT22;11658;48.908;9.140;2023-08-31T12:55:50;20.10;99.90
22984;DHT22;11658;48.908;9.140;2023-08-31T12:58:16;20.20;99.90
22984;DHT22;11658;48.908;9.140;2023-08-31T13:00:42;19.90;99.90
22984;DHT22;11658;48.908;9.140;2023-08-31T13:03:11;19.90;99.90
22984;DHT22;11658;48.908;9.140;2023-08-31T13:05:40;19.70;99.90
22984;DHT22;11658;48.908;9.140;2023-08-31T13:08:07;19.80;99.90
22984;DHT22;11658;48.908;9.140;2023-08-31T13:10:34;20.10;99.90
22984;DHT22;11658;48.908;9.140;2023-08-31T13:12:59;20.10;99.90
22984;DHT22;11658;48.908;9.140;2023-08-31T13:15:26;20.30;99.90
22984;DHT22;11658;48.908;9.140;2023-08-31T13:17:51;20.30;99.90
22984;DHT22;11658;48.908;9.140;2023-08-31T13:20:17;20.20;99.90
22984;DHT22;11658;48.908;9.140;2023-08-31T13:22:42;20.10;99.90
22984;DHT22;11658;48.908;9.140;2023-08-31T13:25:08;20.00;99.90
22984;DHT22;11658;48.908;9.140;2023-08-31T13:27:34;20.10;99.90
22984;DHT22;11658;48.908;9.140;2023-08-31T13:30:00;20.10;99.90
22984;DHT22;11658;48.908;9.140;2023-08-31T13:32:25;19.70;99.90
22984;DHT22;11658;48.908;9.140;2023-08-31T13:34:51;19.80;99.90
22984;DHT22;11658;48.908;9.140;2023-08-31T13:37:18;20.10;99.90
22984;DHT22;11658;48.908;9.140;2023-08-31T13:39:44;20.00;99.90
22984;DHT22;11658;48.908;9.140;2023-08-31T13:42:10;20.20;99.90
22984;DHT22;11658;48.908;9.140;2023-08-31T13:44:35;20.50;99.90
22984;DHT22;11658;48.908;9.140;2023-08-31T13:47:01;20.50;99.90
22984;DHT22;11658;48.908;9.140;2023-08-31T13:49:29;20.50;99.90
22984;DHT22;11658;48.908;9.140;2023-08-31T13:51:54;20.40;99.90
22984;DHT22;11658;48.908;9.140;2023-08-31T13:54:20;20.60;99.90
22984;DHT22;11658;48.908;9.140;2023-08-31T13:56:46;20.70;99.90
22984;DHT22;11658;48.908;9.140;2023-08-31T13:59:11;20.70;99.90
22984;DHT22;11658;48.908;9.140;2023-08-31T14:01:37;20.60;99.90
22984;DHT22;11658;48.908;9.140;2023-08-31T14:04:03;20.20;99.90
22984;DHT22;11658;48.908;9.140;2023-08-31T14:06:36;19.90;99.90
22984;DHT22;11658;48.908;9.140;2023-08-31T14:09:01;19.50;99.90
22984;DHT22;11658;48.908;9.140;2023-08-31T14:11:27;19.40;99.90
22984;DHT22;11658;48.908;9.140;2023-08-31T14:14:01;19.30;99.90
22984;DHT22;11658;48.908;9.140;2023-08-31T14:16:29;19.20;99.90
22984;DHT22;11658;48.908;9.140;2023-08-31T14:18:54;19.10;99.90
22984;DHT22;11658;48.908;9.140;2023-08-31T14:21:20;19.80;99.90
22984;DHT22;11658;48.908;9.140;2023-08-31T14:23:46;19.10;99.90
22984;DHT22;11658;48.908;9.140;2023-08-31T14:26:11;19.00;99.90
22984;DHT22;11658;48.908;9.140;2023-08-31T14:28:37;19.00;99.90
22984;DHT22;11658;48.908;9.140;2023-08-31T14:31:06;19.00;99.90
22984;DHT22;11658;48.908;9.140;2023-08-31T14:33:32;19.00;99.90
22984;DHT22;11658;48.908;9.140;2023-08-31T14:35:58;19.00;99.90
22984;DHT22;11658;48.908;9.140;2023-08-31T14:38:24;18.90;99.90
22984;DHT22;11658;48.908;9.140;2023-08-31T14:40:51;18.70;99.90
22984;DHT22;11658;48.908;9.140;2023-08-31T14:43:16;18.80;99.90
22984;DHT22;11658;48.908;9.140;2023-08-31T14:45:42;18.80;99.90
22984;DHT22;11658;48.908;9.140;2023-08-31T14:48:08;18.90;99.90
22984;DHT22;11658;48.908;9.140;2023-08-31T14:50:34;18.70;99.90
22984;DHT22;11658;48.908;9.140;2023-08-31T14:53:00;18.80;99.90
22984;DHT22;11658;48.908;9.140;2023-08-31T14:55:25;18.80;99.90
22984;DHT22;11658;48.908;9.140;2023-08-31T14:57:51;19.00;99.90
22984;DHT22;11658;48.908;9.140;2023-08-31T15:00:17;18.80;99.90
22984;DHT22;11658;48.908;9.140;2023-08-31T15:02:42;18.60;99.90
22984;DHT22;11658;48.908;9.140;2023-08-31T15:05:08;19.00;99.90
22984;DHT22;11658;48.908;9.140;2023-08-31T15:07:34;18.70;99.90
22984;DHT22;11658;48.908;9.140;2023-08-31T15:09:59;18.90;99.90
22984;DHT22;11658;48.908;9.140;2023-08-31T15:12:26;18.80;99.90
22984;DHT22;11658;48.908;9.140;2023-08-31T15:14:52;19.20;99.90
22984;DHT22;11658;48.908;9.140;2023-08-31T15:17:18;19.20;99.90
22984;DHT22;11658;48.908;9.140;2023-08-31T15:19:43;19.50;99.90
22984;DHT22;11658;48.908;9.140;2023-08-31T15:22:09;19.50;99.90
22984;DHT22;11658;48.908;9.140;2023-08-31T15:24:35;19.70;99.90
22984;DHT22;11658;48.908;9.140;2023-08-31T15:27:02;19.30;99.90
22984;DHT22;11658;48.908;9.140;2023-08-31T15:29:28;19.20;99.90
22984;DHT22;11658;48.908;9.140;2023-08-31T15:31:55;19.10;99.90
22984;DHT22;11658;48.908;9.140;2023-08-31T15:34:21;19.00;99.90
22984;DHT22;11658;48.908;9.140;2023-08-31T15:36:47;18.80;99.90
22984;DHT22;11658;48.908;9.140;2023-08-31T15:39:12;19.00;99.90
22984;DHT22;11658;48.908;9.140;2023-08-31T15:41:39;18.80;99.90
22984;DHT22;11658;48.908;9.140;2023-08-31T15:44:04;18.80;99.90
22984;DHT22;11658;48.908;9.140;2023-08-31T15:46:30;18.70;99.90
22984;DHT22;11658;48.908;9.140;2023-08-31T15:48:55;18.80;99.90
22984;DHT22;11658;48.908;9.140;2023-08-31T15:51:21;18.70;99.90
22984;DHT22;11658;48.908;9.140;2023-08-31T15:53:47;18.70;99.90
22984;DHT22;11658;48.908;9.140;2023-08-31T15:56:12;18.60;99.90
22984;DHT22;11658;48.908;9.140;2023-08-31T15:58:38;18.70;99.90
22984;DHT22;11658;48.908;9.140;2023-08-31T16:01:09;18.30;99.90
22984;DHT22;11658;48.908;9.140;2023-08-31T16:03:34;18.30;99.90
22984;DHT22;11658;48.908;9.140;2023-08-31T16:06:00;18.20;99.90
22984;DHT22;11658;48.908;9.140;2023-08-31T16:08:27;18.10;99.90
22984;DHT22;11658;48.908;9.140;2023-08-31T16:10:53;17.80;99.90
22984;DHT22;11658;48.908;9.140;2023-08-31T16:13:18;17.80;99.90
22984;DHT22;11658;48.908;9.140;2023-08-31T16:15:45;17.90;99.90
22984;DHT22;11658;48.908;9.140;2023-08-31T16:18:15;17.90;99.90
22984;DHT22;11658;48.908;9.140;2023-08-31T16:20:42;18.00;99.90
22984;DHT22;11658;48.908;9.140;2023-08-31T16:23:08;18.00;99.90
22984;DHT22;11658;48.908;9.140;2023-08-31T16:25:34;17.90;99.90
22984;DHT22;11658;48.908;9.140;2023-08-31T16:28:00;17.80;99.90
22984;DHT22;11658;48.908;9.140;2023-08-31T16:30:26;18.00;99.90
22984;DHT22;11658;48.908;9.140;2023-08-31T16:32:52;17.90;99.90
22984;DHT22;11658;48.908;9.140;2023-08-31T16:35:17;17.90;99.90
22984;DHT22;11658;48.908;9.140;2023-08-31T16:37:43;17.90;99.90
22984;DHT22;11658;48.908;9.140;2023-08-31T16:40:10;18.10;99.90
22984;DHT22;11658;48.908;9.140;2023-08-31T16:42:37;18.00;99.90
22984;DHT22;11658;48.908;9.140;2023-08-31T16:45:04;18.00;99.90
22984;DHT22;11658;48.908;9.140;2023-08-31T16:47:31;18.10;99.90
22984;DHT22;11658;48.908;9.140;2023-08-31T16:49:58;18.20;99.90
22984;DHT22;11658;48.908;9.140;2023-08-31T16:52:25;18.50;99.90
22984;DHT22;11658;48.908;9.140;2023-08-31T16:54:50;18.60;99.90
22984;DHT22;11658;48.908;9.140;2023-08-31T16:57:16;18.40;99.90
22984;DHT22;11658;48.908;9.140;2023-08-31T16:59:42;18.50;99.90
22984;DHT22;11658;48.908;9.140;2023-08-31T17:02:07;18.30;99.90
22984;DHT22;11658;48.908;9.140;2023-08-31T17:04:33;18.50;99.90
22984;DHT22;11658;48.908;9.140;2023-08-31T17:06:59;18.20;99.90
22984;DHT22;11658;48.908;9.140;2023-08-31T17:09:25;18.30;99.90
22984;DHT22;11658;48.908;9.140;2023-08-31T17:11:50;18.20;99.90
22984;DHT22;11658;48.908;9.140;2023-08-31T17:14:16;18.10;99.90
22984;DHT22;11658;48.908;9.140;2023-08-31T17:16:45;18.00;99.90
22984;DHT22;11658;48.908;9.140;2023-08-31T17:19:12;17.90;99.90
22984;DHT22;11658;48.908;9.140;2023-08-31T17:21:39;18.00;99.90
22984;DHT22;11658;48.908;9.140;2023-08-31T17:24:05;17.90;99.90
22984;DHT22;11658;48.908;9.140;2023-08-31T17:26:31;17.90;99.90
22984;DHT22;11658;48.908;9.140;2023-08-31T17:28:56;17.80;99.90
22984;DHT22;11658;48.908;9.140;2023-08-31T17:31:22;18.00;99.90
22984;DHT22;11658;48.908;9.140;2023-08-31T17:33:47;17.80;99.90
22984;DHT22;11658;48.908;9.140;2023-08-31T17:36:17;18.10;99.90
22984;DHT22;11658;48.908;9.140;2023-08-31T17:38:44;17.60;99.90
22984;DHT22;11658;48.908;9.140;2023-08-31T17:41:10;17.60;99.90
22984;DHT22;11658;48.908;9.140;2023-08-31T17:43:36;17.60;99.90
22984;DHT22;11658;48.908;9.140;2023-08-31T17:46:01;17.70;99.90
22984;DHT22;11658;48.908;9.140;2023-08-31T17:48:29;17.80;99.90
22984;DHT22;11658;48.908;9.140;2023-08-31T17:50:57;17.70;99.90
22984;DHT22;11658;48.908;9.140;2023-08-31T17:53:23;17.80;99.90
22984;DHT22;11658;48.908;9.140;2023-08-31T17:55:48;17.70;99.90
22984;DHT22;11658;48.908;9.140;2023-08-31T17:58:14;17.70;99.90
22984;DHT22;11658;48.908;9.140;2023-08-31T18:00:39;17.70;99.90
22984;DHT22;11658;48.908;9.140;2023-08-31T18:03:05;17.70;99.90
22984;DHT22;11658;48.908;9.140;2023-08-31T18:07:57;17.50;99.90
22984;DHT22;11658;48.908;9.140;2023-08-31T18:10:23;17.40;99.90
22984;DHT22;11658;48.908;9.140;2023-08-31T18:12:53;17.30;99.90
22984;DHT22;11658;48.908;9.140;2023-08-31T18:15:20;17.30;99.90
22984;DHT22;11658;48.908;9.140;2023-08-31T18:17:46;17.30;99.90
22984;DHT22;11658;48.908;9.140;2023-08-31T18:20:12;17.20;99.90
22984;DHT22;11658;48.908;9.140;2023-08-31T18:22:37;17.10;99.90
22984;DHT22;11658;48.908;9.140;2023-08-31T18:25:07;17.10;99.90
22984;DHT22;11658;48.908;9.140;2023-08-31T18:27:33;17.10;99.90
22984;DHT22;11658;48.908;9.140;2023-08-31T18:29:59;17.00;99.90
22984;DHT22;11658;48.908;9.140;2023-08-31T18:32:25;17.00;99.90
22984;DHT22;11658;48.908;9.140;2023-08-31T18:34:50;17.10;99.90
22984;DHT22;11658;48.908;9.140;2023-08-31T18:37:19;17.00;99.90
22984;DHT22;11658;48.908;9.140;2023-08-31T18:39:44;17.10;99.90
22984;DHT22;11658;48.908;9.140;2023-08-31T18:42:10;17.20;99.90
22984;DHT22;11658;48.908;9.140;2023-08-31T18:44:36;17.20;99.90
22984;DHT22;11658;48.908;9.140;2023-08-31T18:47:01;17.30;99.90
22984;DHT22;11658;48.908;9.140;2023-08-31T18:49:28;17.20;99.90
22984;DHT22;11658;48.908;9.140;2023-08-31T18:51:53;17.20;99.90
22984;DHT22;11658;48.908;9.140;2023-08-31T18:54:19;17.30;99.90
22984;DHT22;11658;48.908;9.140;2023-08-31T18:56:44;17.20;99.90
22984;DHT22;11658;48.908;9.140;2023-08-31T18:59:10;17.20;99.90
22984;DHT22;11658;48.908;9.140;2023-08-31T19:01:35;17.10;99.90
22984;DHT22;11658;48.908;9.140;2023-08-31T19:04:01;17.10;99.90
22984;DHT22;11658;48.908;9.140;2023-08-31T19:06:28;17.10;99.90
22984;DHT22;11658;48.908;9.140;2023-08-31T19:08:54;17.00;99.90
22984;DHT22;11658;48.908;9.140;2023-08-31T19:11:20;17.00;99.90
22984;DHT22;11658;48.908;9.140;2023-08-31T19:13:45;16.80;99.90
22984;DHT22;11658;48.908;9.140;2023-08-31T19:16:15;16.70;99.90
22984;DHT22;11658;48.908;9.140;2023-08-31T19:18:41;16.70;99.90
22984;DHT22;11658;48.908;9.140;2023-08-31T19:21:06;16.70;99.90
22984;DHT22;11658;48.908;9.140;2023-08-31T19:23:32;16.60;99.90
22984;DHT22;11658;48.908;9.140;2023-08-31T19:26:05;16.40;99.90
22984;DHT22;11658;48.908;9.140;2023-08-31T19:28:36;16.30;99.90
22984;DHT22;11658;48.908;9.140;2023-08-31T19:31:02;16.20;99.90
22984;DHT22;11658;48.908;9.140;2023-08-31T19:33:28;16.10;99.90
22984;DHT22;11658;48.908;9.140;2023-08-31T19:35:53;16.00;99.90
22984;DHT22;11658;48.908;9.140;2023-08-31T19:38:20;15.90;99.90
22984;DHT22;11658;48.908;9.140;2023-08-31T19:40:45;15.80;99.90
22984;DHT22;11658;48.908;9.140;2023-08-31T19:43:11;15.70;99.90